createdAt,value
2022-11-27T06:01:09.441Z,9.63
2022-11-27T06:03:39.046Z,9.00
2022-11-27T06:06:08.394Z,8.20
2022-11-27T06:08:37.569Z,8.97
2022-11-27T06:11:08.506Z,9.30
2022-11-27T06:13:36.546Z,9.03
2022-11-27T06:16:09.884Z,8.77
2022-11-27T06:18:37.860Z,8.90
2022-11-27T06:21:09.496Z,8.60
2022-11-27T06:23:37.492Z,10.03
2022-11-27T06:26:15.869Z,9.63
2022-11-27T06:28:44.123Z,15.40
2022-11-27T06:31:18.252Z,14.93
2022-11-27T06:33:46.566Z,12.40
2022-11-27T06:36:14.582Z,12.57
2022-11-27T06:38:42.563Z,12.73
2022-11-27T06:41:11.657Z,11.60
2022-11-27T06:43:39.744Z,10.43
2022-11-27T06:46:08.928Z,12.10
2022-11-27T06:48:38.334Z,8.17
2022-11-27T06:51:07.434Z,9.10
2022-11-27T06:53:37.564Z,8.90
2022-11-27T06:56:05.880Z,8.90
2022-11-27T06:58:34.024Z,10.40
2022-11-27T07:01:02.413Z,9.90
2022-11-27T07:03:30.435Z,9.90
2022-11-27T07:06:02.091Z,12.30
2022-11-27T07:08:30.093Z,11.83
2022-11-27T07:11:02.668Z,13.67
2022-11-27T07:13:30.705Z,12.60
2022-11-27T07:16:00.973Z,16.37
2022-11-27T07:18:29.030Z,16.50
2022-11-27T07:20:57.024Z,16.67
2022-11-27T07:23:26.411Z,14.80
2022-11-27T07:25:54.413Z,13.80
2022-11-27T07:28:22.362Z,14.50
2022-11-27T07:30:55.725Z,17.37
2022-11-27T07:33:23.781Z,17.00
2022-11-27T07:35:51.703Z,16.43
2022-11-27T07:38:19.651Z,17.10
2022-11-27T07:40:48.957Z,16.67
2022-11-27T07:43:16.882Z,19.00
2022-11-27T07:45:44.883Z,18.97
2022-11-27T07:48:12.889Z,17.30
2022-11-27T07:50:40.887Z,15.77
2022-11-27T07:53:08.830Z,9.90
2022-11-27T07:55:38.995Z,12.10
2022-11-27T07:58:08.449Z,13.97
2022-11-27T08:00:36.598Z,13.17
2022-11-27T08:03:04.599Z,10.57
2022-11-27T08:05:34.846Z,11.30
2022-11-27T08:08:04.413Z,9.90
2022-11-27T08:10:32.646Z,9.57
2022-11-27T08:13:00.782Z,9.77
2022-11-27T08:15:30.132Z,11.00
2022-11-27T08:17:58.155Z,9.97
2022-11-27T08:20:26.230Z,8.90
2022-11-27T08:22:58.135Z,9.80
2022-11-27T08:25:29.223Z,8.43
2022-11-27T08:27:57.159Z,8.13
2022-11-27T08:30:25.221Z,6.77
2022-11-27T08:32:54.633Z,8.47
2022-11-27T08:35:22.636Z,9.53
2022-11-27T08:37:50.784Z,8.90
2022-11-27T08:40:18.977Z,8.30
2022-11-27T08:42:46.911Z,11.37
2022-11-27T08:45:14.987Z,13.20
2022-11-27T08:47:43.536Z,14.00
2022-11-27T08:50:13.025Z,14.07
2022-11-27T08:52:41.031Z,15.53
2022-11-27T08:55:09.851Z,14.60
2022-11-27T08:57:37.989Z,16.83
2022-11-27T09:00:07.701Z,17.30
2022-11-27T09:02:35.716Z,17.90
2022-11-27T09:05:05.835Z,17.20
2022-11-27T09:07:35.272Z,18.57
2022-11-27T09:10:03.306Z,15.27
2022-11-27T09:12:31.268Z,15.20
2022-11-27T09:14:59.191Z,15.67
2022-11-27T09:17:27.218Z,17.40
2022-11-27T09:19:55.203Z,17.63
2022-11-27T09:22:23.198Z,17.00
2022-11-27T09:24:52.596Z,17.80
2022-11-27T09:27:20.525Z,16.27
2022-11-27T09:29:49.653Z,17.37
2022-11-27T09:32:17.663Z,19.43
2022-11-27T09:34:45.795Z,15.50
2022-11-27T09:37:13.787Z,15.03
2022-11-27T09:39:41.794Z,13.80
2022-11-27T09:42:14.152Z,11.60
2022-11-27T09:44:45.446Z,12.47
2022-11-27T09:47:16.387Z,11.87
2022-11-27T09:49:46.462Z,13.57
2022-11-27T09:52:19.066Z,10.70
2022-11-27T09:54:54.397Z,10.57
2022-11-27T09:57:26.933Z,8.90
2022-11-27T09:59:54.950Z,11.00
2022-11-27T10:02:26.497Z,9.47
2022-11-27T10:08:06.079Z,9.63
2022-11-27T10:10:40.286Z,9.60
2022-11-27T10:13:15.960Z,8.50
2022-11-27T10:15:45.646Z,8.87
2022-11-27T10:18:16.167Z,8.73
2022-11-27T10:20:46.900Z,7.80
2022-11-27T10:23:19.783Z,7.87
2022-11-27T10:25:49.296Z,7.70
2022-11-27T10:28:24.837Z,9.17
2022-11-27T10:30:54.146Z,9.27
2022-11-27T10:33:25.183Z,9.10
2022-11-27T10:35:53.117Z,9.30
2022-11-27T10:38:22.086Z,9.67
2022-11-27T10:40:53.573Z,7.90
2022-11-27T10:43:23.548Z,9.37
2022-11-27T10:45:52.845Z,7.97
2022-11-27T10:48:20.829Z,8.40
2022-11-27T10:50:48.811Z,8.37
2022-11-27T10:53:20.910Z,8.73
2022-11-27T10:56:06.402Z,8.47
2022-11-27T10:58:37.670Z,8.80
2022-11-27T11:01:07.012Z,9.87
2022-11-27T11:03:35.138Z,9.23
2022-11-27T11:06:20.122Z,7.33
2022-11-27T11:08:49.741Z,8.10
2022-11-27T11:11:26.390Z,10.13
2022-11-27T11:13:56.132Z,8.10
2022-11-27T11:16:27.333Z,8.57
2022-11-27T11:18:58.214Z,8.33
2022-11-27T11:21:28.389Z,8.30
2022-11-27T11:24:00.039Z,8.70
2022-11-27T11:26:29.652Z,7.60
2022-11-27T11:28:59.641Z,9.57
2022-11-27T11:31:30.388Z,8.50
2022-11-27T11:33:59.883Z,7.30
2022-11-27T11:36:27.913Z,7.90
2022-11-27T11:38:55.904Z,8.10
2022-11-27T11:41:24.555Z,7.10
2022-11-27T11:43:59.036Z,8.27
2022-11-27T11:46:28.611Z,7.60
2022-11-27T11:49:01.573Z,7.50
2022-11-27T11:52:08.892Z,8.87
2022-11-27T11:54:59.238Z,8.03
2022-11-27T11:58:00.613Z,7.87
2022-11-27T12:00:43.730Z,8.03
2022-11-27T12:03:33.551Z,10.40
2022-11-27T12:06:14.024Z,10.83
2022-11-27T12:08:52.873Z,11.60
2022-11-27T12:11:22.301Z,12.70
2022-11-27T12:13:56.542Z,10.07
2022-11-27T12:16:27.599Z,12.87
2022-11-27T12:19:04.416Z,10.63
2022-11-27T12:21:37.163Z,10.13
2022-11-27T12:24:11.632Z,10.70
2022-11-27T12:26:46.647Z,12.40
2022-11-27T12:29:34.409Z,10.47
2022-11-27T12:32:23.978Z,12.30
2022-11-27T12:34:59.893Z,9.63
2022-11-27T12:37:34.865Z,12.80
2022-11-27T12:40:11.221Z,10.67
2022-11-27T12:42:41.389Z,12.70
2022-11-27T12:45:18.636Z,13.97
2022-11-27T12:47:49.889Z,12.57
2022-11-27T12:50:19.381Z,11.13
2022-11-27T12:52:49.249Z,13.17
2022-11-27T12:55:18.504Z,14.03
2022-11-27T12:57:48.263Z,12.90
2022-11-27T13:00:17.962Z,14.40
2022-11-27T13:02:51.142Z,13.10
2022-11-27T13:05:20.595Z,12.40
2022-11-27T13:07:50.050Z,15.37
2022-11-27T13:10:21.823Z,14.00
2022-11-27T13:12:51.734Z,14.67
2022-11-27T13:15:24.016Z,16.30
2022-11-27T13:17:57.710Z,15.73
2022-11-27T13:20:28.675Z,14.27
2022-11-27T13:22:56.649Z,12.70
2022-11-27T13:25:24.684Z,14.63
2022-11-27T13:27:52.856Z,12.60
2022-11-27T13:30:22.679Z,12.77
2022-11-27T13:32:52.140Z,10.67
2022-11-27T13:35:23.781Z,11.77
2022-11-27T13:37:57.511Z,11.00
2022-11-27T13:40:27.938Z,11.93
2022-11-27T13:42:56.931Z,11.17
2022-11-27T13:45:27.048Z,14.23
2022-11-27T13:47:55.134Z,12.63
2022-11-27T13:50:29.686Z,13.70
2022-11-27T13:53:00.637Z,14.50
2022-11-27T13:55:29.844Z,14.10
2022-11-27T13:57:59.450Z,12.50
2022-11-27T14:00:35.587Z,14.27
2022-11-27T14:03:03.624Z,13.50
2022-11-27T14:05:40.852Z,11.93
2022-11-27T14:08:18.222Z,12.37
2022-11-27T14:10:50.874Z,14.10
2022-11-27T14:13:21.427Z,15.20
2022-11-27T14:16:01.777Z,15.50
2022-11-27T14:18:30.312Z,12.47
2022-11-27T14:21:01.359Z,15.67
2022-11-27T14:23:33.527Z,12.70
2022-11-27T14:26:14.713Z,17.43
2022-11-27T14:28:44.117Z,14.33
2022-11-27T14:31:23.103Z,13.03
2022-11-27T14:34:14.034Z,14.30
2022-11-27T14:36:40.536Z,18.07
2022-11-27T14:39:09.238Z,20.23
2022-11-27T14:41:37.234Z,17.40
2022-11-27T14:44:05.919Z,33.37
2022-11-27T14:46:34.154Z,27.33
2022-11-27T14:49:02.125Z,27.10
2022-11-27T14:51:31.036Z,22.53
2022-11-27T14:54:01.420Z,20.83
2022-11-27T14:56:30.573Z,25.10
2022-11-27T14:58:58.548Z,26.30
2022-11-27T15:01:27.541Z,24.43
2022-11-27T15:03:59.067Z,28.93
2022-11-27T15:06:27.269Z,25.63
2022-11-27T15:09:23.615Z,21.60
2022-11-27T15:11:55.636Z,19.47
2022-11-27T15:14:24.558Z,22.53
2022-11-27T15:16:52.805Z,21.27
2022-11-27T15:19:27.564Z,19.90
2022-11-27T15:21:55.498Z,19.50
2022-11-27T15:24:34.175Z,19.37
2022-11-27T15:27:17.827Z,21.93
2022-11-27T15:30:00.937Z,20.27
2022-11-27T15:32:36.123Z,23.07
2022-11-27T15:35:14.606Z,22.20
2022-11-27T15:37:43.992Z,22.07
2022-11-27T15:40:32.449Z,21.97
2022-11-27T15:43:03.235Z,21.90
2022-11-27T15:45:33.274Z,21.53
2022-11-27T15:48:03.085Z,25.70
2022-11-27T15:50:32.487Z,33.80
2022-11-27T15:53:02.160Z,109.07
2022-11-27T15:55:33.415Z,158.82
2022-11-27T15:58:04.731Z,56.50
2022-11-27T16:00:34.451Z,37.00
2022-11-27T16:03:03.876Z,123.40
2022-11-27T16:05:32.183Z,75.90
2022-11-27T16:08:01.701Z,78.53
2022-11-27T16:10:31.097Z,50.10
2022-11-27T16:13:00.619Z,34.60
2022-11-27T16:15:33.145Z,43.20
2022-11-27T16:18:02.976Z,34.10
2022-11-27T16:20:32.768Z,37.57
2022-11-27T16:23:02.040Z,30.23
2022-11-27T16:25:31.831Z,36.00
2022-11-27T16:28:03.232Z,36.47
2022-11-27T16:30:34.639Z,32.47
2022-11-27T16:33:04.576Z,36.97
2022-11-27T16:35:34.275Z,37.60
2022-11-27T16:38:04.074Z,32.63
2022-11-27T16:40:34.934Z,34.00
2022-11-27T16:43:04.497Z,28.27
2022-11-27T16:45:36.779Z,25.77
2022-11-27T16:48:06.771Z,24.43
2022-11-27T16:50:36.498Z,21.70
2022-11-27T16:53:06.136Z,21.70
2022-11-27T16:55:35.872Z,21.43
2022-11-27T16:58:05.510Z,25.30
2022-11-27T17:00:37.350Z,24.90
2022-11-27T17:03:06.823Z,34.63
2022-11-27T17:05:39.647Z,20.77
2022-11-27T17:08:09.360Z,18.87
2022-11-27T17:10:39.104Z,16.17
2022-11-27T17:13:08.940Z,18.80
2022-11-27T17:15:40.844Z,17.90
2022-11-27T17:18:12.937Z,19.10
2022-11-27T17:20:43.226Z,18.67
2022-11-27T17:23:13.159Z,19.23
2022-11-27T17:25:42.981Z,17.90
2022-11-27T17:28:12.832Z,17.77
2022-11-27T17:30:44.360Z,19.17
2022-11-27T17:33:14.264Z,29.10
2022-11-27T17:35:44.421Z,37.70
2022-11-27T17:38:14.490Z,22.50
2022-11-27T17:40:44.351Z,26.00
2022-11-27T17:43:14.093Z,27.00
2022-11-27T17:45:45.664Z,30.40
2022-11-27T17:48:15.643Z,29.17
2022-11-27T17:50:45.656Z,14.77
2022-11-27T17:53:15.604Z,15.97
2022-11-27T17:55:45.488Z,18.07
2022-11-27T17:58:15.550Z,15.53
2022-11-27T18:00:49.865Z,20.70
2022-11-27T18:03:19.804Z,18.73
2022-11-27T18:05:49.843Z,20.20
2022-11-27T18:08:19.647Z,17.70
2022-11-27T18:10:49.485Z,17.03
2022-11-27T18:13:19.259Z,20.40
2022-11-27T18:15:50.740Z,24.33
2022-11-27T18:18:20.655Z,24.77
2022-11-27T18:20:51.197Z,24.83
2022-11-27T18:23:21.000Z,30.50
2022-11-27T18:25:50.821Z,28.97
2022-11-27T18:28:20.819Z,24.70
2022-11-27T18:30:52.049Z,24.67
2022-11-27T18:33:24.112Z,25.20
2022-11-27T18:35:58.081Z,25.70
2022-11-27T18:38:27.989Z,35.53
2022-11-27T18:40:58.318Z,21.70
2022-11-27T18:43:28.242Z,22.80
2022-11-27T18:45:59.931Z,19.67
2022-11-27T18:48:30.012Z,21.30
2022-11-27T18:51:09.296Z,33.50
2022-11-27T18:53:39.304Z,20.10
2022-11-27T18:56:10.247Z,18.33
2022-11-27T18:58:40.166Z,17.53
2022-11-27T19:01:12.761Z,16.70
2022-11-27T19:03:43.138Z,16.17
2022-11-27T19:06:13.952Z,18.03
2022-11-27T19:08:44.597Z,15.43
2022-11-27T19:11:17.766Z,16.20
2022-11-27T19:13:48.314Z,21.93
2022-11-27T19:16:21.019Z,23.03
2022-11-27T19:18:50.909Z,15.20
2022-11-27T19:21:21.648Z,25.10
2022-11-27T19:23:51.665Z,23.07
2022-11-27T19:26:23.008Z,23.13
2022-11-27T19:28:53.156Z,23.50
2022-11-27T19:31:25.030Z,22.67
2022-11-27T19:33:55.194Z,21.27
2022-11-27T19:36:26.989Z,20.03
2022-11-27T19:38:57.352Z,20.57
2022-11-27T19:41:29.631Z,21.53
2022-11-27T19:43:59.604Z,24.83
2022-11-27T19:46:31.658Z,24.27
2022-11-27T19:49:02.272Z,22.90
2022-11-27T19:51:33.915Z,22.97
2022-11-27T19:54:10.048Z,24.67
2022-11-27T19:56:43.301Z,25.63
2022-11-27T19:59:13.323Z,23.90
2022-11-27T20:01:45.038Z,20.40
2022-11-27T20:04:15.343Z,20.30
2022-11-27T20:06:45.497Z,19.40
2022-11-27T20:09:16.341Z,19.40
2022-11-27T20:11:49.328Z,19.93
2022-11-27T20:14:19.569Z,22.17
2022-11-27T20:16:51.409Z,21.73
2022-11-27T20:19:24.123Z,22.70
2022-11-27T20:21:56.147Z,35.73
2022-11-27T20:24:26.245Z,24.33
2022-11-27T20:26:56.345Z,23.67
2022-11-27T20:29:26.393Z,19.97
2022-11-27T20:31:58.391Z,18.00
2022-11-27T20:34:30.407Z,20.90
2022-11-27T20:37:00.438Z,17.27
2022-11-27T20:39:32.832Z,18.10
2022-11-27T20:42:02.922Z,27.00
2022-11-27T20:44:33.063Z,38.40
2022-11-27T20:47:04.692Z,28.30
2022-11-27T20:49:34.856Z,21.97
2022-11-27T20:52:05.629Z,18.03
2022-11-27T20:54:35.603Z,21.13
2022-11-27T20:57:05.494Z,20.43
2022-11-27T20:59:34.444Z,19.53
2022-11-27T21:02:05.441Z,18.93
2022-11-27T21:04:34.805Z,17.13
2022-11-27T21:07:03.804Z,13.10
2022-11-27T21:09:32.616Z,11.93
2022-11-27T21:12:01.767Z,11.97
2022-11-27T21:14:30.798Z,12.40
2022-11-27T21:17:04.450Z,13.30
2022-11-27T21:19:34.935Z,14.70
2022-11-27T21:22:03.622Z,12.73
2022-11-27T21:24:32.196Z,10.50
2022-11-27T21:27:00.635Z,13.13
2022-11-27T21:29:28.805Z,11.90
2022-11-27T21:31:57.345Z,13.87
2022-11-27T21:34:25.735Z,14.97
2022-11-27T21:36:55.068Z,14.33
2022-11-27T21:39:24.624Z,13.20
2022-11-27T21:41:54.329Z,14.27
2022-11-27T21:44:22.556Z,15.00
2022-11-27T21:46:50.556Z,15.60
2022-11-27T21:49:19.294Z,16.17
2022-11-27T21:51:47.223Z,18.07
2022-11-27T21:54:17.665Z,15.53
2022-11-27T21:56:45.647Z,17.00
2022-11-27T21:59:14.422Z,13.00
2022-11-27T22:01:42.483Z,10.17
2022-11-27T22:04:10.553Z,12.80
2022-11-27T22:06:39.211Z,10.70
2022-11-27T22:09:11.876Z,12.90
2022-11-27T22:11:44.561Z,13.33
2022-11-27T22:14:12.778Z,13.67
2022-11-27T22:16:45.141Z,11.80
2022-11-27T22:19:14.516Z,10.60
2022-11-27T22:21:42.629Z,11.17
2022-11-27T22:24:15.081Z,13.30
2022-11-27T22:26:48.216Z,12.50
2022-11-27T22:29:16.176Z,14.67
2022-11-27T22:31:44.351Z,10.73
2022-11-27T22:34:12.323Z,10.90
2022-11-27T22:36:40.286Z,9.60
2022-11-27T22:39:08.511Z,8.93
2022-11-27T22:41:37.193Z,8.13
2022-11-27T22:44:07.654Z,9.40
2022-11-27T22:46:36.500Z,9.47
2022-11-27T22:49:05.501Z,9.30
2022-11-27T22:51:34.553Z,10.43
2022-11-27T22:54:02.606Z,11.57
2022-11-27T22:56:30.643Z,14.07
2022-11-27T22:59:24.671Z,10.03
2022-11-27T23:01:49.707Z,11.20
2022-11-27T23:04:17.697Z,10.77
2022-11-27T23:06:48.171Z,12.00
2022-11-27T23:09:16.426Z,12.53
2022-11-27T23:11:44.495Z,15.43
2022-11-27T23:14:12.721Z,20.67
2022-11-27T23:16:40.753Z,15.43
2022-11-27T23:19:10.141Z,14.23
2022-11-27T23:21:38.914Z,15.30
2022-11-27T23:24:07.319Z,16.67
2022-11-27T23:26:35.368Z,14.30
2022-11-27T23:29:03.301Z,19.87
2022-11-27T23:31:35.089Z,16.57
2022-11-27T23:34:04.205Z,16.43
2022-11-27T23:36:33.523Z,15.30
2022-11-27T23:39:01.741Z,16.03
2022-11-27T23:41:29.906Z,15.53
2022-11-27T23:43:58.096Z,18.27
2022-11-27T23:46:27.648Z,18.17
2022-11-27T23:48:55.650Z,19.60
2022-11-27T23:51:24.715Z,17.97
2022-11-27T23:53:54.077Z,17.17
2022-11-27T23:56:23.000Z,19.50
2022-11-27T23:58:50.987Z,19.27
